PVD weather

Theodore Francis Green State Airport
Providence, Rhode Island, United States

Public forecast

Using degrees Fahrenheit for public forecast. Weather courtesy of forecast.io.

Current aviation weather report (METAR) for Theodore Francis Green State Airport

Retrieved 2019/11/23 00:51 UTC (13 minutes ago):

KPVD 230051Z COR 30012G19KT 10SM FEW039 04/M04 A2975 RMK AO2 PK WND 29029/0005 SLP074 T00441039

Aviation forecast (TAF) for Theodore Francis Green State Airport

Retrieved 2019-11-23 00:27 UTC (37 minutes ago):

TAF KPVD 222325Z 2300/2324 30020G33KT P6SM BKN040 FM230700 29011G22KT P6SM SKC FM230900 30009KT P6SM SKC FM231700 26009KT P6SM FEW250